sensor_id;sensor_type;location;lat;lon;timestamp;pressure;altitude;pressure_sealevel;temperature;humidity
25610;BME280;13479;49.044;8.716;2023-04-27T04:01:04;99131.75;;;7.89;62.94
25610;BME280;13479;49.044;8.716;2023-04-27T04:03:30;99172.16;;;7.91;62.85
25610;BME280;13479;49.044;8.716;2023-04-27T04:05:56;99191.69;;;7.88;62.26
25610;BME280;13479;49.044;8.716;2023-04-27T04:08:21;99184.63;;;7.89;62.73
25610;BME280;13479;49.044;8.716;2023-04-27T04:10:46;99166.47;;;7.84;63.26
25610;BME280;13479;49.044;8.716;2023-04-27T04:13:12;99151.69;;;7.82;63.05
25610;BME280;13479;49.044;8.716;2023-04-27T04:15:37;99143.63;;;7.83;63.36
25610;BME280;13479;49.044;8.716;2023-04-27T04:18:02;99132.31;;;7.81;63.45
25610;BME280;13479;49.044;8.716;2023-04-27T04:20:27;99135.16;;;7.91;63.67
25610;BME280;13479;49.044;8.716;2023-04-27T04:22:53;99126.47;;;7.89;63.34
25610;BME280;13479;49.044;8.716;2023-04-27T04:25:18;99114.22;;;7.88;63.61
25610;BME280;13479;49.044;8.716;2023-04-27T04:27:44;99116.38;;;7.94;63.75
25610;BME280;13479;49.044;8.716;2023-04-27T04:30:10;99119.91;;;7.95;63.52
25610;BME280;13479;49.044;8.716;2023-04-27T04:32:35;99131.81;;;8.00;63.25
25610;BME280;13479;49.044;8.716;2023-04-27T04:35:02;99161.91;;;8.11;62.35
25610;BME280;13479;49.044;8.716;2023-04-27T04:37:31;99198.19;;;8.09;62.13
25610;BME280;13479;49.044;8.716;2023-04-27T04:39:56;99205.28;;;8.08;61.78
25610;BME280;13479;49.044;8.716;2023-04-27T04:42:21;99215.53;;;8.13;61.83
25610;BME280;13479;49.044;8.716;2023-04-27T04:44:47;99218.66;;;8.18;61.23
25610;BME280;13479;49.044;8.716;2023-04-27T04:47:12;99226.38;;;8.21;60.92
25610;BME280;13479;49.044;8.716;2023-04-27T04:49:37;99219.19;;;8.23;61.25
25610;BME280;13479;49.044;8.716;2023-04-27T04:52:02;99215.88;;;8.32;61.28
25610;BME280;13479;49.044;8.716;2023-04-27T04:54:28;99199.31;;;8.42;61.20
25610;BME280;13479;49.044;8.716;2023-04-27T04:56:53;99195.47;;;8.46;61.61
25610;BME280;13479;49.044;8.716;2023-04-27T04:59:19;99198.56;;;8.53;61.70
25610;BME280;13479;49.044;8.716;2023-04-27T05:01:44;99193.38;;;8.62;61.63
25610;BME280;13479;49.044;8.716;2023-04-27T05:04:09;99191.69;;;8.61;61.87
25610;BME280;13479;49.044;8.716;2023-04-27T05:06:35;99181.41;;;8.70;61.54
25610;BME280;13479;49.044;8.716;2023-04-27T05:09:00;99187.94;;;8.88;61.45
25610;BME280;13479;49.044;8.716;2023-04-27T05:11:26;99197.56;;;8.89;61.12
25610;BME280;13479;49.044;8.716;2023-04-27T05:13:51;99184.69;;;8.96;61.36
25610;BME280;13479;49.044;8.716;2023-04-27T05:16:16;99191.56;;;9.21;61.38
25610;BME280;13479;49.044;8.716;2023-04-27T05:18:41;99201.09;;;9.35;60.87
25610;BME280;13479;49.044;8.716;2023-04-27T05:21:16;99234.22;;;9.52;59.70
25610;BME280;13479;49.044;8.716;2023-04-27T05:23:45;99228.44;;;9.58;59.40
25610;BME280;13479;49.044;8.716;2023-04-27T05:26:16;99229.63;;;9.66;58.79
25610;BME280;13479;49.044;8.716;2023-04-27T05:28:42;99223.59;;;9.75;59.13
25610;BME280;13479;49.044;8.716;2023-04-27T05:31:07;99200.00;;;9.83;60.11
25610;BME280;13479;49.044;8.716;2023-04-27T05:33:32;99189.38;;;9.95;59.92
25610;BME280;13479;49.044;8.716;2023-04-27T05:35:58;99196.31;;;10.07;60.13
25610;BME280;13479;49.044;8.716;2023-04-27T05:38:24;99180.81;;;10.24;60.16
25610;BME280;13479;49.044;8.716;2023-04-27T05:40:56;99171.38;;;10.42;60.11
25610;BME280;13479;49.044;8.716;2023-04-27T05:43:22;99191.72;;;10.53;59.39
25610;BME280;13479;49.044;8.716;2023-04-27T05:45:47;99243.41;;;10.70;58.12
25610;BME280;13479;49.044;8.716;2023-04-27T05:48:13;99247.88;;;10.91;56.93
25610;BME280;13479;49.044;8.716;2023-04-27T05:50:38;99250.28;;;11.15;55.05
25610;BME280;13479;49.044;8.716;2023-04-27T05:53:03;99241.56;;;11.34;54.04
25610;BME280;13479;49.044;8.716;2023-04-27T05:55:30;99228.91;;;11.48;53.21
25610;BME280;13479;49.044;8.716;2023-04-27T05:57:55;99235.69;;;11.62;52.60
25610;BME280;13479;49.044;8.716;2023-04-27T06:00:20;99229.38;;;11.53;52.77
25610;BME280;13479;49.044;8.716;2023-04-27T06:02:46;99229.84;;;11.68;52.40
25610;BME280;13479;49.044;8.716;2023-04-27T06:05:12;99229.19;;;11.76;53.13
25610;BME280;13479;49.044;8.716;2023-04-27T06:07:37;99229.75;;;11.89;52.53
25610;BME280;13479;49.044;8.716;2023-04-27T06:10:02;99237.72;;;12.20;52.20
25610;BME280;13479;49.044;8.716;2023-04-27T06:12:28;99251.06;;;12.40;52.13
25610;BME280;13479;49.044;8.716;2023-04-27T06:14:53;99239.56;;;12.69;52.27
25610;BME280;13479;49.044;8.716;2023-04-27T06:17:20;99247.97;;;12.93;51.77
25610;BME280;13479;49.044;8.716;2023-04-27T06:19:45;99256.91;;;13.12;51.25
25610;BME280;13479;49.044;8.716;2023-04-27T06:22:11;99251.84;;;13.28;50.70
25610;BME280;13479;49.044;8.716;2023-04-27T06:24:36;99243.09;;;13.46;50.62
25610;BME280;13479;49.044;8.716;2023-04-27T06:27:01;99250.53;;;13.80;49.40
25610;BME280;13479;49.044;8.716;2023-04-27T06:29:27;99253.03;;;13.92;48.54
25610;BME280;13479;49.044;8.716;2023-04-27T06:31:52;99253.31;;;14.16;47.45
25610;BME280;13479;49.044;8.716;2023-04-27T06:34:17;99246.31;;;14.33;47.46
25610;BME280;13479;49.044;8.716;2023-04-27T06:36:42;99252.38;;;14.54;46.64
25610;BME280;13479;49.044;8.716;2023-04-27T06:39:08;99258.97;;;14.77;46.11
25610;BME280;13479;49.044;8.716;2023-04-27T06:41:33;99277.09;;;15.10;45.06
25610;BME280;13479;49.044;8.716;2023-04-27T06:43:58;99262.00;;;15.27;44.65
25610;BME280;13479;49.044;8.716;2023-04-27T06:46:23;99275.03;;;15.48;44.51
25610;BME280;13479;49.044;8.716;2023-04-27T06:48:49;99274.53;;;15.53;43.91
25610;BME280;13479;49.044;8.716;2023-04-27T06:51:14;99279.34;;;15.75;43.13
25610;BME280;13479;49.044;8.716;2023-04-27T06:53:40;99279.97;;;15.87;42.36
25610;BME280;13479;49.044;8.716;2023-04-27T06:56:08;99279.69;;;16.07;41.66
25610;BME280;13479;49.044;8.716;2023-04-27T06:58:33;99282.72;;;16.12;41.40
25610;BME280;13479;49.044;8.716;2023-04-27T07:00:58;99287.38;;;16.10;41.70
25610;BME280;13479;49.044;8.716;2023-04-27T07:03:24;99283.28;;;16.24;41.13
25610;BME280;13479;49.044;8.716;2023-04-27T07:05:49;99278.94;;;16.31;41.13
25610;BME280;13479;49.044;8.716;2023-04-27T07:08:17;99275.56;;;16.29;41.10
25610;BME280;13479;49.044;8.716;2023-04-27T07:10:42;99276.78;;;16.43;41.01
25610;BME280;13479;49.044;8.716;2023-04-27T07:13:08;99287.03;;;16.56;40.76
25610;BME280;13479;49.044;8.716;2023-04-27T07:15:33;99291.34;;;16.41;41.11
25610;BME280;13479;49.044;8.716;2023-04-27T07:17:58;99263.16;;;16.20;42.38
25610;BME280;13479;49.044;8.716;2023-04-27T07:20:24;99248.38;;;16.08;43.47
25610;BME280;13479;49.044;8.716;2023-04-27T07:22:49;99237.81;;;15.98;42.66
25610;BME280;13479;49.044;8.716;2023-04-27T07:25:15;99229.78;;;15.98;42.93
25610;BME280;13479;49.044;8.716;2023-04-27T07:27:40;99237.19;;;18.64;39.37
25610;BME280;13479;49.044;8.716;2023-04-27T07:30:06;99271.78;;;22.05;34.37
25610;BME280;13479;49.044;8.716;2023-04-27T07:32:34;99301.78;;;25.42;30.78
25610;BME280;13479;49.044;8.716;2023-04-27T07:34:59;99314.66;;;28.38;26.14
25610;BME280;13479;49.044;8.716;2023-04-27T07:37:24;99317.66;;;30.02;23.74
25610;BME280;13479;49.044;8.716;2023-04-27T07:39:50;99319.72;;;31.86;21.50
25610;BME280;13479;49.044;8.716;2023-04-27T07:42:19;99304.16;;;32.92;20.13
25610;BME280;13479;49.044;8.716;2023-04-27T07:44:46;99305.19;;;33.84;19.08
25610;BME280;13479;49.044;8.716;2023-04-27T07:47:11;99302.88;;;34.72;18.23
25610;BME280;13479;49.044;8.716;2023-04-27T07:49:37;99300.22;;;33.96;18.34
25610;BME280;13479;49.044;8.716;2023-04-27T07:52:04;99297.09;;;34.69;16.95
25610;BME280;13479;49.044;8.716;2023-04-27T07:54:29;99302.47;;;34.49;16.50
25610;BME280;13479;49.044;8.716;2023-04-27T07:56:55;99298.31;;;34.52;17.08
25610;BME280;13479;49.044;8.716;2023-04-27T07:59:20;99303.53;;;34.99;16.47
25610;BME280;13479;49.044;8.716;2023-04-27T08:01:45;99297.72;;;34.60;16.59
25610;BME280;13479;49.044;8.716;2023-04-27T08:04:11;99293.22;;;34.19;16.84
25610;BME280;13479;49.044;8.716;2023-04-27T08:06:37;99296.13;;;33.88;17.11
25610;BME280;13479;49.044;8.716;2023-04-27T08:09:02;99300.78;;;33.93;17.64
25610;BME280;13479;49.044;8.716;2023-04-27T08:11:28;99294.47;;;34.48;17.25
25610;BME280;13479;49.044;8.716;2023-04-27T08:13:53;99296.06;;;35.63;16.41
25610;BME280;13479;49.044;8.716;2023-04-27T08:16:19;99283.56;;;36.77;15.86
25610;BME280;13479;49.044;8.716;2023-04-27T08:18:44;99294.66;;;38.27;14.83
25610;BME280;13479;49.044;8.716;2023-04-27T08:21:09;99292.19;;;39.21;13.44
25610;BME280;13479;49.044;8.716;2023-04-27T08:23:35;99290.47;;;39.66;13.44
25610;BME280;13479;49.044;8.716;2023-04-27T08:26:02;99286.91;;;39.34;12.88
25610;BME280;13479;49.044;8.716;2023-04-27T08:28:27;99288.38;;;39.08;13.33
25610;BME280;13479;49.044;8.716;2023-04-27T08:30:52;99292.47;;;39.34;13.24
25610;BME280;13479;49.044;8.716;2023-04-27T08:33:18;99302.03;;;39.59;12.29
25610;BME280;13479;49.044;8.716;2023-04-27T08:35:43;99292.78;;;40.22;12.66
25610;BME280;13479;49.044;8.716;2023-04-27T08:38:08;99292.34;;;40.46;11.91
25610;BME280;13479;49.044;8.716;2023-04-27T08:40:33;99289.22;;;41.18;11.39
25610;BME280;13479;49.044;8.716;2023-04-27T08:42:59;99281.34;;;41.02;11.15
25610;BME280;13479;49.044;8.716;2023-04-27T08:45:26;99273.84;;;40.94;10.27
25610;BME280;13479;49.044;8.716;2023-04-27T08:47:52;99277.78;;;40.93;10.95
25610;BME280;13479;49.044;8.716;2023-04-27T08:50:17;99295.75;;;41.22;10.94
25610;BME280;13479;49.044;8.716;2023-04-27T08:52:46;99292.50;;;40.50;11.56
25610;BME280;13479;49.044;8.716;2023-04-27T08:55:12;99288.38;;;39.08;12.39
25610;BME280;13479;49.044;8.716;2023-04-27T08:57:38;99292.59;;;39.06;12.17
25610;BME280;13479;49.044;8.716;2023-04-27T09:00:04;99289.56;;;39.16;11.98
25610;BME280;13479;49.044;8.716;2023-04-27T09:02:42;99296.69;;;38.86;12.36
25610;BME280;13479;49.044;8.716;2023-04-27T09:05:14;99287.75;;;38.89;12.37
25610;BME280;13479;49.044;8.716;2023-04-27T09:07:40;99293.25;;;38.43;13.75
25610;BME280;13479;49.044;8.716;2023-04-27T09:10:05;99285.38;;;37.95;14.50
25610;BME280;13479;49.044;8.716;2023-04-27T09:12:31;99280.69;;;37.34;12.74
25610;BME280;13479;49.044;8.716;2023-04-27T09:15:00;99275.16;;;37.34;13.41
25610;BME280;13479;49.044;8.716;2023-04-27T09:17:30;99272.97;;;36.65;13.68
25610;BME280;13479;49.044;8.716;2023-04-27T09:20:07;99268.28;;;36.46;14.18
25610;BME280;13479;49.044;8.716;2023-04-27T09:22:42;99272.03;;;36.89;14.52
25610;BME280;13479;49.044;8.716;2023-04-27T09:25:08;99273.34;;;37.44;14.59
25610;BME280;13479;49.044;8.716;2023-04-27T09:27:33;99275.59;;;36.89;14.65
25610;BME280;13479;49.044;8.716;2023-04-27T09:29:58;99266.19;;;36.90;14.63
25610;BME280;13479;49.044;8.716;2023-04-27T09:32:23;99266.75;;;36.73;15.10
25610;BME280;13479;49.044;8.716;2023-04-27T09:34:49;99262.25;;;36.39;15.09
25610;BME280;13479;49.044;8.716;2023-04-27T09:37:14;99257.31;;;35.74;14.93
25610;BME280;13479;49.044;8.716;2023-04-27T09:39:41;99255.94;;;34.43;15.92
25610;BME280;13479;49.044;8.716;2023-04-27T09:42:06;99256.84;;;35.07;16.21
25610;BME280;13479;49.044;8.716;2023-04-27T09:44:32;99250.16;;;35.14;16.00
25610;BME280;13479;49.044;8.716;2023-04-27T09:46:58;99244.94;;;34.77;16.66
25610;BME280;13479;49.044;8.716;2023-04-27T09:49:26;99247.84;;;34.57;16.91
25610;BME280;13479;49.044;8.716;2023-04-27T09:51:54;99241.72;;;34.65;17.08
25610;BME280;13479;49.044;8.716;2023-04-27T09:54:24;99234.25;;;34.21;16.37
25610;BME280;13479;49.044;8.716;2023-04-27T09:57:08;99230.06;;;33.73;16.46
25610;BME280;13479;49.044;8.716;2023-04-27T09:59:40;99230.34;;;33.71;16.40
25610;BME280;13479;49.044;8.716;2023-04-27T10:02:15;99226.50;;;33.67;16.61
25610;BME280;13479;49.044;8.716;2023-04-27T10:05:08;99232.13;;;33.05;17.24
25610;BME280;13479;49.044;8.716;2023-04-27T10:07:38;99226.03;;;32.77;17.67
25610;BME280;13479;49.044;8.716;2023-04-27T10:10:05;99224.69;;;32.70;17.68
25610;BME280;13479;49.044;8.716;2023-04-27T10:12:34;99216.97;;;32.61;16.66
25610;BME280;13479;49.044;8.716;2023-04-27T10:15:12;99208.22;;;32.59;16.74
25610;BME280;13479;49.044;8.716;2023-04-27T10:17:38;99213.59;;;32.18;16.72
25610;BME280;13479;49.044;8.716;2023-04-27T10:20:05;99213.84;;;32.11;17.39
25610;BME280;13479;49.044;8.716;2023-04-27T10:22:44;99208.97;;;31.12;16.89
25610;BME280;13479;49.044;8.716;2023-04-27T10:25:13;99204.03;;;30.49;17.60
25610;BME280;13479;49.044;8.716;2023-04-27T10:27:40;99210.03;;;29.96;18.04
25610;BME280;13479;49.044;8.716;2023-04-27T10:30:10;99208.88;;;29.31;18.92
25610;BME280;13479;49.044;8.716;2023-04-27T10:32:35;99194.84;;;29.05;19.05
25610;BME280;13479;49.044;8.716;2023-04-27T10:35:02;99195.84;;;28.81;20.27
25610;BME280;13479;49.044;8.716;2023-04-27T10:37:41;99196.50;;;28.72;20.05
25610;BME280;13479;49.044;8.716;2023-04-27T10:40:11;99196.28;;;28.44;21.44
25610;BME280;13479;49.044;8.716;2023-04-27T10:42:39;99201.81;;;28.49;21.28
25610;BME280;13479;49.044;8.716;2023-04-27T10:45:05;99198.94;;;27.98;21.80
25610;BME280;13479;49.044;8.716;2023-04-27T10:47:39;99192.66;;;27.57;22.77
25610;BME280;13479;49.044;8.716;2023-04-27T10:50:07;99195.88;;;27.30;22.59
25610;BME280;13479;49.044;8.716;2023-04-27T10:52:32;99189.44;;;26.77;22.70
25610;BME280;13479;49.044;8.716;2023-04-27T10:55:04;99189.13;;;26.43;23.06
25610;BME280;13479;49.044;8.716;2023-04-27T10:57:29;99183.50;;;26.26;23.48
25610;BME280;13479;49.044;8.716;2023-04-27T10:59:54;99183.25;;;26.15;23.20
25610;BME280;13479;49.044;8.716;2023-04-27T11:02:27;99178.31;;;26.05;24.11
25610;BME280;13479;49.044;8.716;2023-04-27T11:04:52;99180.72;;;25.83;24.42
25610;BME280;13479;49.044;8.716;2023-04-27T11:07:25;99176.91;;;25.84;23.90
25610;BME280;13479;49.044;8.716;2023-04-27T11:09:51;99171.41;;;25.72;24.09
25610;BME280;13479;49.044;8.716;2023-04-27T11:12:17;99165.94;;;25.91;23.56
25610;BME280;13479;49.044;8.716;2023-04-27T11:14:42;99160.91;;;26.25;23.56
25610;BME280;13479;49.044;8.716;2023-04-27T11:17:08;99157.69;;;26.16;23.49
25610;BME280;13479;49.044;8.716;2023-04-27T11:19:43;99150.84;;;25.95;23.31
25610;BME280;13479;49.044;8.716;2023-04-27T11:22:09;99157.28;;;25.82;24.03
25610;BME280;13479;49.044;8.716;2023-04-27T11:24:34;99162.91;;;25.69;23.32
25610;BME280;13479;49.044;8.716;2023-04-27T11:26:59;99159.25;;;25.38;23.82
25610;BME280;13479;49.044;8.716;2023-04-27T11:29:25;99156.81;;;25.29;24.08
25610;BME280;13479;49.044;8.716;2023-04-27T11:31:50;99152.69;;;25.08;23.80
25610;BME280;13479;49.044;8.716;2023-04-27T11:34:18;99153.34;;;25.22;24.54
25610;BME280;13479;49.044;8.716;2023-04-27T11:37:04;99154.28;;;25.35;25.20
25610;BME280;13479;49.044;8.716;2023-04-27T11:39:35;99155.66;;;25.44;25.12
25610;BME280;13479;49.044;8.716;2023-04-27T11:42:20;99150.22;;;25.44;24.68
25610;BME280;13479;49.044;8.716;2023-04-27T11:45:00;99142.63;;;25.09;25.38
25610;BME280;13479;49.044;8.716;2023-04-27T11:47:28;99137.63;;;25.06;25.21
25610;BME280;13479;49.044;8.716;2023-04-27T11:49:55;99137.28;;;24.77;25.20
25610;BME280;13479;49.044;8.716;2023-04-27T11:52:33;99126.91;;;24.42;25.22
25610;BME280;13479;49.044;8.716;2023-04-27T11:54:59;99121.38;;;23.91;25.86
25610;BME280;13479;49.044;8.716;2023-04-27T11:57:29;99114.97;;;23.33;26.18
25610;BME280;13479;49.044;8.716;2023-04-27T11:59:57;99120.22;;;23.08;27.17
25610;BME280;13479;49.044;8.716;2023-04-27T12:02:27;99120.88;;;22.76;27.92
25610;BME280;13479;49.044;8.716;2023-04-27T12:04:53;99123.59;;;22.63;28.78
25610;BME280;13479;49.044;8.716;2023-04-27T12:07:18;99120.84;;;22.36;27.48
25610;BME280;13479;49.044;8.716;2023-04-27T12:09:44;99111.28;;;22.27;27.57
25610;BME280;13479;49.044;8.716;2023-04-27T12:12:10;99106.28;;;22.37;28.44
25610;BME280;13479;49.044;8.716;2023-04-27T12:14:37;99107.56;;;22.41;28.34
25610;BME280;13479;49.044;8.716;2023-04-27T12:17:02;99102.13;;;22.28;28.55
25610;BME280;13479;49.044;8.716;2023-04-27T12:19:27;99101.91;;;22.23;28.98
25610;BME280;13479;49.044;8.716;2023-04-27T12:21:54;99098.16;;;22.10;29.01
25610;BME280;13479;49.044;8.716;2023-04-27T12:24:19;99094.59;;;22.03;28.93
25610;BME280;13479;49.044;8.716;2023-04-27T12:26:45;99097.09;;;21.98;29.74
25610;BME280;13479;49.044;8.716;2023-04-27T12:29:13;99097.69;;;21.86;29.39
25610;BME280;13479;49.044;8.716;2023-04-27T12:31:38;99095.41;;;21.83;29.01
25610;BME280;13479;49.044;8.716;2023-04-27T12:34:04;99089.81;;;22.05;28.87
25610;BME280;13479;49.044;8.716;2023-04-27T12:36:29;99076.72;;;22.02;27.98
25610;BME280;13479;49.044;8.716;2023-04-27T12:39:11;99078.00;;;22.19;27.87
25610;BME280;13479;49.044;8.716;2023-04-27T12:41:37;99078.59;;;22.35;29.00
25610;BME280;13479;49.044;8.716;2023-04-27T12:44:03;99083.22;;;22.68;28.41
25610;BME280;13479;49.044;8.716;2023-04-27T12:46:28;99084.66;;;22.77;28.03
25610;BME280;13479;49.044;8.716;2023-04-27T12:48:54;99085.91;;;22.75;27.66
25610;BME280;13479;49.044;8.716;2023-04-27T12:51:21;99084.03;;;22.75;27.83
25610;BME280;13479;49.044;8.716;2023-04-27T12:53:46;99090.06;;;22.77;27.73
25610;BME280;13479;49.044;8.716;2023-04-27T12:56:11;99082.59;;;22.66;27.95
25610;BME280;13479;49.044;8.716;2023-04-27T12:58:36;99077.59;;;22.76;27.83
25610;BME280;13479;49.044;8.716;2023-04-27T13:01:02;99076.56;;;22.71;28.23
25610;BME280;13479;49.044;8.716;2023-04-27T13:03:27;99073.38;;;22.87;28.35
25610;BME280;13479;49.044;8.716;2023-04-27T13:05:52;99070.88;;;22.99;29.58
25610;BME280;13479;49.044;8.716;2023-04-27T13:08:18;99086.25;;;23.05;28.74
25610;BME280;13479;49.044;8.716;2023-04-27T13:10:43;99083.41;;;22.87;28.02
25610;BME280;13479;49.044;8.716;2023-04-27T13:13:09;99083.75;;;23.24;27.04
25610;BME280;13479;49.044;8.716;2023-04-27T13:15:34;99080.84;;;23.05;28.36
25610;BME280;13479;49.044;8.716;2023-04-27T13:18:00;99076.25;;;23.12;28.62
25610;BME280;13479;49.044;8.716;2023-04-27T13:20:29;99076.56;;;22.64;27.59
25610;BME280;13479;49.044;8.716;2023-04-27T13:22:54;99074.25;;;22.41;27.91
25610;BME280;13479;49.044;8.716;2023-04-27T13:25:19;99065.53;;;22.39;27.83
25610;BME280;13479;49.044;8.716;2023-04-27T13:27:44;99062.41;;;22.21;28.42
25610;BME280;13479;49.044;8.716;2023-04-27T13:30:10;99056.56;;;22.25;29.86
25610;BME280;13479;49.044;8.716;2023-04-27T13:32:35;99060.13;;;22.32;29.71
25610;BME280;13479;49.044;8.716;2023-04-27T13:35:01;99061.75;;;22.13;29.62
25610;BME280;13479;49.044;8.716;2023-04-27T13:37:26;99049.28;;;22.05;29.02
25610;BME280;13479;49.044;8.716;2023-04-27T13:39:51;99062.16;;;21.96;28.71
25610;BME280;13479;49.044;8.716;2023-04-27T13:42:16;99047.59;;;21.97;30.56
25610;BME280;13479;49.044;8.716;2023-04-27T13:44:42;99048.88;;;22.01;29.92
25610;BME280;13479;49.044;8.716;2023-04-27T13:47:07;99048.47;;;22.11;29.57
25610;BME280;13479;49.044;8.716;2023-04-27T13:49:32;99051.78;;;22.13;29.83
25610;BME280;13479;49.044;8.716;2023-04-27T13:51:58;99054.69;;;22.59;29.56
25610;BME280;13479;49.044;8.716;2023-04-27T13:54:24;99054.28;;;22.48;29.07
25610;BME280;13479;49.044;8.716;2023-04-27T13:56:49;99061.78;;;22.33;29.69
25610;BME280;13479;49.044;8.716;2023-04-27T13:59:14;99056.78;;;22.23;29.81
25610;BME280;13479;49.044;8.716;2023-04-27T14:01:40;99054.28;;;22.08;29.10
25610;BME280;13479;49.044;8.716;2023-04-27T14:04:05;99051.34;;;22.03;29.60
25610;BME280;13479;49.044;8.716;2023-04-27T14:06:31;99052.59;;;22.07;29.89
25610;BME280;13479;49.044;8.716;2023-04-27T14:08:56;99043.25;;;22.03;30.08
25610;BME280;13479;49.044;8.716;2023-04-27T14:11:22;99051.97;;;22.05;30.40
25610;BME280;13479;49.044;8.716;2023-04-27T14:13:47;99047.19;;;22.07;30.87
25610;BME280;13479;49.044;8.716;2023-04-27T14:16:12;99058.44;;;22.24;29.44
25610;BME280;13479;49.044;8.716;2023-04-27T14:18:38;99053.03;;;22.24;30.23
25610;BME280;13479;49.044;8.716;2023-04-27T14:21:03;99047.63;;;22.17;30.67
25610;BME280;13479;49.044;8.716;2023-04-27T14:23:28;99061.13;;;22.11;30.06
25610;BME280;13479;49.044;8.716;2023-04-27T14:25:54;99058.00;;;22.00;30.79
25610;BME280;13479;49.044;8.716;2023-04-27T14:28:19;99056.56;;;21.98;30.32
25610;BME280;13479;49.044;8.716;2023-04-27T14:30:44;99049.25;;;21.85;30.18
25610;BME280;13479;49.044;8.716;2023-04-27T14:33:09;99044.69;;;21.92;30.46
25610;BME280;13479;49.044;8.716;2023-04-27T14:35:35;99044.91;;;22.04;30.88
25610;BME280;13479;49.044;8.716;2023-04-27T14:38:01;99038.06;;;22.08;30.01
25610;BME280;13479;49.044;8.716;2023-04-27T14:40:30;99032.66;;;22.21;31.44
25610;BME280;13479;49.044;8.716;2023-04-27T14:42:55;99032.66;;;22.28;30.79
25610;BME280;13479;49.044;8.716;2023-04-27T14:45:20;99039.09;;;22.14;30.43
25610;BME280;13479;49.044;8.716;2023-04-27T14:47:46;99048.47;;;22.11;30.73
25610;BME280;13479;49.044;8.716;2023-04-27T14:50:11;99052.19;;;22.24;30.09
25610;BME280;13479;49.044;8.716;2023-04-27T14:52:37;99046.56;;;21.91;29.98
25610;BME280;13479;49.044;8.716;2023-04-27T14:55:03;99056.09;;;21.74;30.35
25610;BME280;13479;49.044;8.716;2023-04-27T14:57:29;99051.50;;;21.68;30.84
25610;BME280;13479;49.044;8.716;2023-04-27T14:59:55;99043.38;;;21.68;30.75
25610;BME280;13479;49.044;8.716;2023-04-27T15:02:21;99045.28;;;21.67;30.10
25610;BME280;13479;49.044;8.716;2023-04-27T15:04:46;99053.78;;;21.71;30.02
25610;BME280;13479;49.044;8.716;2023-04-27T15:07:11;99051.22;;;21.49;30.18
25610;BME280;13479;49.044;8.716;2023-04-27T15:09:36;99049.09;;;21.38;30.35
25610;BME280;13479;49.044;8.716;2023-04-27T15:12:02;99050.91;;;21.24;30.79
25610;BME280;13479;49.044;8.716;2023-04-27T15:14:27;99047.38;;;21.17;30.74
25610;BME280;13479;49.044;8.716;2023-04-27T15:16:52;99038.41;;;21.16;31.73
25610;BME280;13479;49.044;8.716;2023-04-27T15:19:17;99046.44;;;21.03;30.44
25610;BME280;13479;49.044;8.716;2023-04-27T15:21:43;99042.50;;;20.98;30.85
25610;BME280;13479;49.044;8.716;2023-04-27T15:24:08;99034.88;;;21.09;30.65
25610;BME280;13479;49.044;8.716;2023-04-27T15:26:33;99036.03;;;20.93;31.17
25610;BME280;13479;49.044;8.716;2023-04-27T15:28:59;99022.66;;;20.78;31.52
25610;BME280;13479;49.044;8.716;2023-04-27T15:31:24;99017.50;;;20.83;31.55
25610;BME280;13479;49.044;8.716;2023-04-27T15:33:50;99004.53;;;20.72;31.60
25610;BME280;13479;49.044;8.716;2023-04-27T15:36:17;99018.34;;;20.55;31.55
25610;BME280;13479;49.044;8.716;2023-04-27T15:38:43;99011.78;;;20.64;31.61
25610;BME280;13479;49.044;8.716;2023-04-27T15:41:08;99013.84;;;20.62;31.04
25610;BME280;13479;49.044;8.716;2023-04-27T15:43:33;99010.75;;;20.72;31.26
25610;BME280;13479;49.044;8.716;2023-04-27T15:46:02;99010.56;;;20.74;30.38
25610;BME280;13479;49.044;8.716;2023-04-27T15:48:27;99006.38;;;20.64;30.98
25610;BME280;13479;49.044;8.716;2023-04-27T15:50:52;99010.22;;;20.77;30.45
25610;BME280;13479;49.044;8.716;2023-04-27T15:53:17;99005.16;;;20.67;30.52
25610;BME280;13479;49.044;8.716;2023-04-27T15:55:43;99011.81;;;20.71;30.59
25610;BME280;13479;49.044;8.716;2023-04-27T15:58:08;99011.50;;;20.88;30.46
25610;BME280;13479;49.044;8.716;2023-04-27T16:00:33;99012.56;;;20.93;30.23
25610;BME280;13479;49.044;8.716;2023-04-27T16:02:59;99001.09;;;20.85;30.18
25610;BME280;13479;49.044;8.716;2023-04-27T16:05:24;98991.66;;;20.67;30.44
25610;BME280;13479;49.044;8.716;2023-04-27T16:07:49;98994.56;;;20.65;31.45
25610;BME280;13479;49.044;8.716;2023-04-27T16:10:15;98989.19;;;20.72;31.09
25610;BME280;13479;49.044;8.716;2023-04-27T16:12:40;98983.78;;;20.65;31.93
25610;BME280;13479;49.044;8.716;2023-04-27T16:15:06;98981.28;;;20.35;32.57
25610;BME280;13479;49.044;8.716;2023-04-27T16:17:33;98973.75;;;20.24;32.89
25610;BME280;13479;49.044;8.716;2023-04-27T16:20:02;98969.06;;;20.04;32.34
25610;BME280;13479;49.044;8.716;2023-04-27T16:22:32;98968.78;;;19.78;32.74
25610;BME280;13479;49.044;8.716;2023-04-27T16:24:57;98967.03;;;19.63;32.50
25610;BME280;13479;49.044;8.716;2023-04-27T16:27:24;98969.38;;;19.51;32.98
25610;BME280;13479;49.044;8.716;2023-04-27T16:29:49;98961.56;;;19.20;33.50
25610;BME280;13479;49.044;8.716;2023-04-27T16:32:14;98961.06;;;19.31;33.42
25610;BME280;13479;49.044;8.716;2023-04-27T16:34:41;98958.78;;;19.28;33.33
25610;BME280;13479;49.044;8.716;2023-04-27T16:37:06;98953.09;;;19.01;33.94
25610;BME280;13479;49.044;8.716;2023-04-27T16:39:32;98950.47;;;19.08;33.60
25610;BME280;13479;49.044;8.716;2023-04-27T16:41:57;98955.41;;;19.04;34.01
25610;BME280;13479;49.044;8.716;2023-04-27T16:44:22;98949.31;;;18.80;34.15
25610;BME280;13479;49.044;8.716;2023-04-27T16:46:47;98946.34;;;18.90;34.02
25610;BME280;13479;49.044;8.716;2023-04-27T16:49:14;98946.34;;;18.90;34.16
25610;BME280;13479;49.044;8.716;2023-04-27T16:51:39;98955.53;;;18.96;34.29
25610;BME280;13479;49.044;8.716;2023-04-27T16:54:05;98951.19;;;18.95;34.46
25610;BME280;13479;49.044;8.716;2023-04-27T16:56:34;98956.44;;;19.03;34.42
25610;BME280;13479;49.044;8.716;2023-04-27T16:58:59;98955.03;;;18.92;34.82